WZZ7XN EGGW-LZIB
Flight info
| Callsign | WZZ7XN |
|---|---|
| Flight time | 2h 0m |
| Altitude | 37000 |
| Route | MATCH Q295 BRAIN M197 REDFA DCT TACHA DCT GISEB DCT BADGO DCT SWALM DCT VELIS DCT OKG DCT NELPA DCT TABEM DCT ODNEM/N0374F230 M748 BERVA |
| Aircraft | A321/M-SDE1E2E3FGIJ1J4RWXY/LB1 |
Departure
| Time | 2026-04-30 11:36 |
|---|---|
| Airport | London Luton Airport (EGGW) |
Arrival
| Time | 2026-04-30 13:37 |
|---|---|
| Airport | M. R. Štefánik Airport (LZIB) |
| Time | Latitude | Longitude | Altitude | Speed | Heading |
|---|---|---|---|---|---|
| 2026-04-30 10:52 | 51.87969 | -0.37265 | 508 ft | 0 kts | 161° |
| 2026-04-30 11:28 | 51.88007 | -0.37287 | 508 ft | 4 kts | 152° |
| 2026-04-30 11:28 | 51.88024 | -0.37311 | 508 ft | 4 kts | 96° |
| 2026-04-30 11:28 | 51.88025 | -0.37303 | 508 ft | 4 kts | 88° |
| 2026-04-30 11:29 | 51.88029 | -0.37275 | 508 ft | 0 kts | 72° |
| 2026-04-30 11:31 | 51.88030 | -0.37269 | 508 ft | 1 kts | 72° |
| 2026-04-30 11:31 | 51.88035 | -0.37243 | 508 ft | 3 kts | 72° |
| 2026-04-30 11:31 | 51.88044 | -0.37196 | 508 ft | 5 kts | 79° |
| 2026-04-30 11:31 | 51.88025 | -0.37139 | 508 ft | 7 kts | 143° |
| 2026-04-30 11:32 | 51.87969 | -0.37106 | 509 ft | 11 kts | 162° |
| 2026-04-30 11:32 | 51.87880 | -0.37058 | 510 ft | 15 kts | 161° |
| 2026-04-30 11:32 | 51.87780 | -0.37005 | 516 ft | 14 kts | 162° |
| 2026-04-30 11:33 | 51.87658 | -0.36951 | 525 ft | 9 kts | 186° |
| 2026-04-30 11:33 | 51.87617 | -0.37040 | 522 ft | 12 kts | 254° |
| 2026-04-30 11:33 | 51.87592 | -0.37184 | 522 ft | 14 kts | 254° |
| 2026-04-30 11:33 | 51.87579 | -0.37344 | 522 ft | 13 kts | 278° |
| 2026-04-30 11:34 | 51.87558 | -0.37460 | 522 ft | 12 kts | 209° |
| 2026-04-30 11:34 | 51.87499 | -0.37563 | 522 ft | 13 kts | 252° |
| 2026-04-30 11:34 | 51.87474 | -0.37708 | 523 ft | 14 kts | 254° |
| 2026-04-30 11:34 | 51.87446 | -0.37871 | 523 ft | 16 kts | 254° |
| 2026-04-30 11:35 | 51.87406 | -0.38028 | 524 ft | 15 kts | 227° |
| 2026-04-30 11:35 | 51.87309 | -0.38109 | 522 ft | 15 kts | 197° |
| 2026-04-30 11:35 | 51.87253 | -0.38116 | 523 ft | 4 kts | 153° |
| 2026-04-30 11:35 | 51.87249 | -0.38073 | 524 ft | 8 kts | 73° |
| 2026-04-30 11:36 | 51.87311 | -0.37720 | 523 ft | 70 kts | 74° |
| 2026-04-30 11:36 | 51.87503 | -0.36592 | 533 ft | 134 kts | 74° |
| 2026-04-30 11:36 | 51.87756 | -0.35075 | 1137 ft | 136 kts | 78° |
| 2026-04-30 11:36 | 51.88011 | -0.33594 | 1886 ft | 138 kts | 79° |
| 2026-04-30 11:37 | 51.88283 | -0.32013 | 2345 ft | 156 kts | 79° |
| 2026-04-30 11:37 | 51.88591 | -0.30199 | 2690 ft | 179 kts | 81° |
| 2026-04-30 11:37 | 51.88940 | -0.28139 | 3017 ft | 201 kts | 81° |
| 2026-04-30 11:37 | 51.89335 | -0.25801 | 3272 ft | 229 kts | 80° |
| 2026-04-30 11:38 | 51.89505 | -0.23226 | 3534 ft | 232 kts | 104° |
| 2026-04-30 11:38 | 51.88800 | -0.20943 | 3778 ft | 230 kts | 135° |
| 2026-04-30 11:38 | 51.87436 | -0.19585 | 4032 ft | 234 kts | 153° |
| 2026-04-30 11:38 | 51.86110 | -0.18086 | 4651 ft | 237 kts | 127° |
| 2026-04-30 11:39 | 51.85498 | -0.15590 | 5520 ft | 246 kts | 102° |
| 2026-04-30 11:39 | 51.85544 | -0.12768 | 6364 ft | 257 kts | 88° |
| 2026-04-30 11:39 | 51.85777 | -0.09880 | 7185 ft | 261 kts | 87° |
| 2026-04-30 11:39 | 51.86024 | -0.06946 | 8009 ft | 266 kts | 86° |
| 2026-04-30 11:40 | 51.86274 | -0.03969 | 8868 ft | 268 kts | 86° |
| 2026-04-30 11:40 | 51.86527 | -0.00960 | 9716 ft | 272 kts | 86° |
| 2026-04-30 11:40 | 51.86782 | 0.02095 | 10501 ft | 277 kts | 86° |
| 2026-04-30 11:40 | 51.87045 | 0.05316 | 10793 ft | 300 kts | 86° |
| 2026-04-30 11:41 | 51.87326 | 0.08785 | 11108 ft | 319 kts | 86° |
| 2026-04-30 11:41 | 51.87618 | 0.12390 | 11738 ft | 326 kts | 85° |
| 2026-04-30 11:41 | 51.87915 | 0.16054 | 12466 ft | 330 kts | 85° |
| 2026-04-30 11:41 | 51.88216 | 0.19768 | 13179 ft | 335 kts | 85° |
| 2026-04-30 11:42 | 51.88520 | 0.23532 | 13882 ft | 339 kts | 85° |
| 2026-04-30 11:42 | 51.88827 | 0.27338 | 14561 ft | 343 kts | 85° |
| 2026-04-30 11:42 | 51.89135 | 0.31186 | 15207 ft | 347 kts | 85° |
| 2026-04-30 11:42 | 51.89443 | 0.35080 | 15861 ft | 351 kts | 85° |
| 2026-04-30 11:43 | 51.89751 | 0.39013 | 16528 ft | 354 kts | 85° |
| 2026-04-30 11:43 | 51.90062 | 0.42998 | 17184 ft | 359 kts | 86° |
| 2026-04-30 11:43 | 51.90376 | 0.47026 | 17839 ft | 363 kts | 86° |
| 2026-04-30 11:43 | 51.90694 | 0.51101 | 18488 ft | 367 kts | 85° |
| 2026-04-30 11:44 | 51.91013 | 0.55215 | 19068 ft | 370 kts | 85° |
| 2026-04-30 11:44 | 51.91333 | 0.59372 | 19689 ft | 373 kts | 86° |
| 2026-04-30 11:44 | 51.91653 | 0.63551 | 20315 ft | 375 kts | 85° |
| 2026-04-30 11:44 | 51.91975 | 0.67764 | 20947 ft | 378 kts | 85° |
| 2026-04-30 11:45 | 51.92293 | 0.71994 | 21576 ft | 380 kts | 86° |
| 2026-04-30 11:45 | 51.92613 | 0.76264 | 22183 ft | 383 kts | 86° |
| 2026-04-30 11:45 | 51.92933 | 0.80562 | 22814 ft | 386 kts | 86° |
| 2026-04-30 11:45 | 51.93255 | 0.84894 | 23459 ft | 387 kts | 86° |
| 2026-04-30 11:46 | 51.93579 | 0.89227 | 24063 ft | 389 kts | 85° |
| 2026-04-30 11:46 | 51.93982 | 0.93574 | 24563 ft | 391 kts | 83° |
| 2026-04-30 11:46 | 51.94479 | 0.97917 | 25084 ft | 393 kts | 82° |
| 2026-04-30 11:46 | 51.95028 | 1.02293 | 25436 ft | 399 kts | 81° |
| 2026-04-30 11:47 | 51.95598 | 1.06719 | 25848 ft | 403 kts | 81° |
| 2026-04-30 11:47 | 51.96167 | 1.11188 | 26303 ft | 406 kts | 81° |
| 2026-04-30 11:47 | 51.96722 | 1.15683 | 26758 ft | 408 kts | 82° |
| 2026-04-30 11:47 | 51.97265 | 1.20211 | 27221 ft | 410 kts | 82° |
| 2026-04-30 11:48 | 51.97799 | 1.24767 | 27674 ft | 412 kts | 82° |
| 2026-04-30 11:48 | 51.98330 | 1.29350 | 28112 ft | 415 kts | 82° |
| 2026-04-30 11:48 | 51.98858 | 1.33962 | 28549 ft | 417 kts | 82° |
| 2026-04-30 11:48 | 51.99387 | 1.38604 | 28997 ft | 420 kts | 82° |
| 2026-04-30 11:49 | 51.99919 | 1.43270 | 29415 ft | 422 kts | 82° |
| 2026-04-30 11:49 | 52.00455 | 1.47972 | 29826 ft | 424 kts | 82° |
| 2026-04-30 11:49 | 52.00994 | 1.52695 | 30202 ft | 427 kts | 82° |
| 2026-04-30 11:49 | 52.01538 | 1.57450 | 30558 ft | 430 kts | 82° |
| 2026-04-30 11:50 | 52.02074 | 1.62170 | 30891 ft | 432 kts | 82° |
| 2026-04-30 11:50 | 52.02625 | 1.67046 | 31237 ft | 435 kts | 82° |
| 2026-04-30 11:50 | 52.03162 | 1.71819 | 31577 ft | 437 kts | 82° |
| 2026-04-30 11:50 | 52.03705 | 1.76677 | 31965 ft | 437 kts | 82° |
| 2026-04-30 11:51 | 52.04247 | 1.81531 | 32509 ft | 434 kts | 82° |
| 2026-04-30 11:51 | 52.04778 | 1.86325 | 33146 ft | 429 kts | 83° |
| 2026-04-30 11:51 | 52.05303 | 1.91083 | 33674 ft | 427 kts | 83° |
| 2026-04-30 11:51 | 52.05820 | 1.95824 | 34136 ft | 426 kts | 83° |
| 2026-04-30 11:52 | 52.06332 | 2.00554 | 34582 ft | 424 kts | 83° |
| 2026-04-30 11:52 | 52.06839 | 2.05271 | 34966 ft | 423 kts | 83° |
| 2026-04-30 11:52 | 52.07346 | 2.09980 | 35327 ft | 423 kts | 83° |
| 2026-04-30 11:52 | 52.07851 | 2.14687 | 35680 ft | 423 kts | 83° |
| 2026-04-30 11:53 | 52.08355 | 2.19397 | 36025 ft | 422 kts | 83° |
| 2026-04-30 11:53 | 52.08857 | 2.24099 | 36322 ft | 423 kts | 83° |
| 2026-04-30 11:53 | 52.09361 | 2.28818 | 36582 ft | 425 kts | 83° |
| 2026-04-30 11:53 | 52.09864 | 2.33554 | 36845 ft | 426 kts | 83° |
| 2026-04-30 11:54 | 52.10351 | 2.38311 | 37117 ft | 426 kts | 86° |
| 2026-04-30 11:54 | 52.10264 | 2.43071 | 37301 ft | 421 kts | 104° |
| 2026-04-30 11:54 | 52.08699 | 2.52202 | 37342 ft | 419 kts | 107° |
| 2026-04-30 11:55 | 52.07140 | 2.61319 | 37345 ft | 418 kts | 106° |
| 2026-04-30 11:55 | 52.05592 | 2.70425 | 37329 ft | 418 kts | 107° |
| 2026-04-30 11:56 | 52.04017 | 2.79516 | 37328 ft | 418 kts | 107° |
| 2026-04-30 11:56 | 52.02426 | 2.88597 | 37340 ft | 418 kts | 107° |
| 2026-04-30 11:57 | 52.00835 | 2.97686 | 37348 ft | 419 kts | 106° |
| 2026-04-30 11:57 | 51.99234 | 3.06771 | 37355 ft | 419 kts | 107° |
| 2026-04-30 11:58 | 51.97673 | 3.15575 | 37373 ft | 419 kts | 107° |
| 2026-04-30 11:58 | 51.96089 | 3.24487 | 37374 ft | 419 kts | 107° |
| 2026-04-30 11:59 | 51.94468 | 3.33554 | 37365 ft | 419 kts | 107° |
| 2026-04-30 11:59 | 51.92847 | 3.42617 | 37350 ft | 419 kts | 106° |
| 2026-04-30 12:00 | 51.91220 | 3.51673 | 37353 ft | 419 kts | 107° |
| 2026-04-30 12:00 | 51.89575 | 3.60726 | 37368 ft | 419 kts | 107° |
| 2026-04-30 12:01 | 51.87924 | 3.69763 | 37372 ft | 419 kts | 107° |
| 2026-04-30 12:01 | 51.86284 | 3.78703 | 37364 ft | 418 kts | 107° |
| 2026-04-30 12:02 | 51.84621 | 3.87752 | 37348 ft | 418 kts | 107° |
| 2026-04-30 12:02 | 51.82945 | 3.96822 | 37359 ft | 418 kts | 106° |
| 2026-04-30 12:03 | 51.80443 | 4.10260 | 37361 ft | 418 kts | 107° |
| 2026-04-30 12:04 | 51.78757 | 4.19241 | 37376 ft | 418 kts | 107° |
| 2026-04-30 12:04 | 51.77071 | 4.28214 | 37370 ft | 418 kts | 107° |
| 2026-04-30 12:05 | 51.75383 | 4.37181 | 37361 ft | 417 kts | 107° |
| 2026-04-30 12:05 | 51.73685 | 4.46143 | 37368 ft | 417 kts | 107° |
| 2026-04-30 12:06 | 51.71979 | 4.55093 | 37377 ft | 418 kts | 107° |
| 2026-04-30 12:06 | 51.70262 | 4.64037 | 37368 ft | 418 kts | 107° |
| 2026-04-30 12:07 | 51.68541 | 4.72970 | 37366 ft | 417 kts | 107° |
| 2026-04-30 12:07 | 51.66812 | 4.81890 | 37371 ft | 417 kts | 107° |
| 2026-04-30 12:08 | 51.65079 | 4.90799 | 37374 ft | 417 kts | 107° |
| 2026-04-30 12:08 | 51.63345 | 4.99709 | 37367 ft | 417 kts | 107° |
| 2026-04-30 12:09 | 51.61600 | 5.08609 | 37370 ft | 417 kts | 107° |
| 2026-04-30 12:09 | 51.59841 | 5.17501 | 37369 ft | 417 kts | 107° |
| 2026-04-30 12:10 | 51.58077 | 5.26393 | 37366 ft | 417 kts | 107° |
| 2026-04-30 12:10 | 51.56314 | 5.35280 | 37374 ft | 418 kts | 107° |
| 2026-04-30 12:11 | 51.54542 | 5.44177 | 37371 ft | 418 kts | 107° |
| 2026-04-30 12:11 | 51.52754 | 5.53073 | 37376 ft | 419 kts | 107° |
| 2026-04-30 12:12 | 51.50958 | 5.61976 | 37371 ft | 419 kts | 107° |
| 2026-04-30 12:12 | 51.49156 | 5.70866 | 37396 ft | 419 kts | 107° |
| 2026-04-30 12:13 | 51.47344 | 5.79762 | 37394 ft | 419 kts | 107° |
| 2026-04-30 12:13 | 51.45541 | 5.88597 | 37388 ft | 420 kts | 107° |
| 2026-04-30 12:14 | 51.43713 | 5.97485 | 37393 ft | 420 kts | 107° |
| 2026-04-30 12:14 | 51.41881 | 6.06367 | 37396 ft | 420 kts | 107° |
| 2026-04-30 12:15 | 51.40042 | 6.15247 | 37403 ft | 420 kts | 107° |
| 2026-04-30 12:15 | 51.38197 | 6.24117 | 37411 ft | 419 kts | 107° |
| 2026-04-30 12:16 | 51.36348 | 6.32965 | 37405 ft | 420 kts | 107° |
| 2026-04-30 12:16 | 51.34489 | 6.41816 | 37401 ft | 419 kts | 107° |
| 2026-04-30 12:17 | 51.31692 | 6.55072 | 37403 ft | 419 kts | 107° |
| 2026-04-30 12:17 | 51.29821 | 6.63899 | 37400 ft | 420 kts | 107° |
| 2026-04-30 12:18 | 51.28258 | 6.71240 | 37411 ft | 420 kts | 106° |
| 2026-04-30 12:18 | 51.26376 | 6.80064 | 37411 ft | 420 kts | 106° |
| 2026-04-30 12:19 | 51.24483 | 6.88868 | 37409 ft | 419 kts | 107° |
| 2026-04-30 12:19 | 51.22577 | 6.97662 | 37408 ft | 419 kts | 107° |
| 2026-04-30 12:20 | 51.20669 | 7.06452 | 37403 ft | 419 kts | 107° |
| 2026-04-30 12:20 | 51.18758 | 7.15229 | 37410 ft | 419 kts | 106° |
| 2026-04-30 12:21 | 51.16842 | 7.24003 | 37399 ft | 419 kts | 106° |
| 2026-04-30 12:21 | 51.14911 | 7.32778 | 37395 ft | 420 kts | 106° |
| 2026-04-30 12:22 | 51.12977 | 7.41557 | 37399 ft | 421 kts | 106° |
| 2026-04-30 12:22 | 51.11039 | 7.50349 | 37403 ft | 421 kts | 106° |
| 2026-04-30 12:23 | 51.09099 | 7.59081 | 37409 ft | 422 kts | 107° |
| 2026-04-30 12:23 | 51.07139 | 7.67867 | 37416 ft | 422 kts | 106° |
| 2026-04-30 12:24 | 51.05171 | 7.76648 | 37413 ft | 422 kts | 106° |
| 2026-04-30 12:24 | 51.03199 | 7.85422 | 37413 ft | 422 kts | 106° |
| 2026-04-30 12:25 | 51.01214 | 7.94181 | 37419 ft | 422 kts | 107° |
| 2026-04-30 12:25 | 50.99222 | 8.02936 | 37422 ft | 422 kts | 106° |
| 2026-04-30 12:26 | 50.97227 | 8.11691 | 37431 ft | 422 kts | 106° |
| 2026-04-30 12:26 | 50.95226 | 8.20447 | 37428 ft | 423 kts | 106° |
| 2026-04-30 12:27 | 50.93210 | 8.29215 | 37429 ft | 423 kts | 106° |
| 2026-04-30 12:27 | 50.91192 | 8.37980 | 37427 ft | 423 kts | 106° |
| 2026-04-30 12:28 | 50.89160 | 8.46743 | 37439 ft | 424 kts | 106° |
| 2026-04-30 12:28 | 50.87117 | 8.55506 | 37447 ft | 424 kts | 106° |
| 2026-04-30 12:29 | 50.85067 | 8.64261 | 37436 ft | 424 kts | 106° |
| 2026-04-30 12:29 | 50.83014 | 8.73017 | 37445 ft | 425 kts | 106° |
| 2026-04-30 12:30 | 50.80954 | 8.81772 | 37431 ft | 425 kts | 106° |
| 2026-04-30 12:30 | 50.78890 | 8.90520 | 37435 ft | 425 kts | 106° |
| 2026-04-30 12:31 | 50.76922 | 8.99310 | 37441 ft | 423 kts | 103° |
| 2026-04-30 12:31 | 50.75297 | 9.08167 | 37441 ft | 422 kts | 101° |
| 2026-04-30 12:32 | 50.73729 | 9.17097 | 37445 ft | 422 kts | 102° |
| 2026-04-30 12:32 | 50.72089 | 9.25999 | 37439 ft | 423 kts | 103° |
| 2026-04-30 12:33 | 50.70370 | 9.34875 | 37438 ft | 423 kts | 103° |
| 2026-04-30 12:33 | 50.68634 | 9.43733 | 37453 ft | 423 kts | 103° |
| 2026-04-30 12:34 | 50.66902 | 9.52613 | 37443 ft | 424 kts | 102° |
| 2026-04-30 12:34 | 50.65174 | 9.61495 | 37447 ft | 424 kts | 103° |
| 2026-04-30 12:35 | 50.63433 | 9.70378 | 37448 ft | 425 kts | 103° |
| 2026-04-30 12:35 | 50.61679 | 9.79256 | 37457 ft | 425 kts | 103° |
| 2026-04-30 12:36 | 50.59923 | 9.88137 | 37469 ft | 425 kts | 102° |
| 2026-04-30 12:36 | 50.58159 | 9.97004 | 37463 ft | 425 kts | 102° |
| 2026-04-30 12:37 | 50.56380 | 10.05876 | 37458 ft | 425 kts | 102° |
| 2026-04-30 12:37 | 50.54599 | 10.14743 | 37456 ft | 425 kts | 102° |
| 2026-04-30 12:38 | 50.52811 | 10.23608 | 37459 ft | 425 kts | 102° |
| 2026-04-30 12:38 | 50.51024 | 10.32467 | 37473 ft | 426 kts | 102° |
| 2026-04-30 12:39 | 50.49220 | 10.41333 | 37461 ft | 426 kts | 102° |
| 2026-04-30 12:39 | 50.47409 | 10.50191 | 37460 ft | 426 kts | 102° |
| 2026-04-30 12:40 | 50.45594 | 10.59049 | 37461 ft | 426 kts | 102° |
| 2026-04-30 12:40 | 50.43770 | 10.67903 | 37461 ft | 427 kts | 102° |
| 2026-04-30 12:41 | 50.41930 | 10.76759 | 37481 ft | 427 kts | 102° |
| 2026-04-30 12:41 | 50.40089 | 10.85604 | 37474 ft | 427 kts | 102° |
| 2026-04-30 12:42 | 50.38254 | 10.94387 | 37472 ft | 427 kts | 102° |
| 2026-04-30 12:42 | 50.36399 | 11.03232 | 37469 ft | 427 kts | 102° |
| 2026-04-30 12:43 | 50.34539 | 11.12064 | 37468 ft | 427 kts | 102° |
| 2026-04-30 12:43 | 50.32669 | 11.20880 | 37464 ft | 426 kts | 102° |
| 2026-04-30 12:44 | 50.30794 | 11.29687 | 37461 ft | 427 kts | 102° |
| 2026-04-30 12:44 | 50.28915 | 11.38492 | 37466 ft | 427 kts | 102° |
| 2026-04-30 12:45 | 50.27027 | 11.47297 | 37460 ft | 427 kts | 102° |
| 2026-04-30 12:45 | 50.25131 | 11.56112 | 37498 ft | 428 kts | 102° |
| 2026-04-30 12:46 | 50.23231 | 11.64895 | 37447 ft | 426 kts | 102° |
| 2026-04-30 12:46 | 50.21325 | 11.73656 | 37448 ft | 426 kts | 102° |
| 2026-04-30 12:47 | 50.19410 | 11.82431 | 37452 ft | 427 kts | 102° |
| 2026-04-30 12:47 | 50.17486 | 11.91200 | 37459 ft | 427 kts | 102° |
| 2026-04-30 12:48 | 50.15558 | 11.99972 | 37500 ft | 427 kts | 102° |
| 2026-04-30 12:48 | 50.13625 | 12.08703 | 37451 ft | 425 kts | 102° |
| 2026-04-30 12:49 | 50.11685 | 12.17421 | 37458 ft | 426 kts | 102° |
| 2026-04-30 12:49 | 50.09742 | 12.26138 | 37470 ft | 426 kts | 102° |
| 2026-04-30 12:50 | 50.07796 | 12.34860 | 37473 ft | 427 kts | 102° |
| 2026-04-30 12:50 | 50.05670 | 12.43511 | 37501 ft | 431 kts | 107° |
| 2026-04-30 12:51 | 50.03174 | 12.52003 | 37501 ft | 431 kts | 107° |
| 2026-04-30 12:51 | 50.00683 | 12.60491 | 37488 ft | 431 kts | 107° |
| 2026-04-30 12:52 | 49.98180 | 12.68966 | 37482 ft | 431 kts | 107° |
| 2026-04-30 12:52 | 49.95681 | 12.77435 | 37482 ft | 431 kts | 107° |
| 2026-04-30 12:53 | 49.93176 | 12.85894 | 37470 ft | 431 kts | 107° |
| 2026-04-30 12:53 | 49.90673 | 12.94311 | 37455 ft | 430 kts | 107° |
| 2026-04-30 12:54 | 49.88159 | 13.02730 | 37459 ft | 431 kts | 107° |
| 2026-04-30 12:54 | 49.85636 | 13.11151 | 37455 ft | 431 kts | 107° |
| 2026-04-30 12:55 | 49.83102 | 13.19576 | 37470 ft | 432 kts | 107° |
| 2026-04-30 12:55 | 49.80562 | 13.27999 | 37478 ft | 432 kts | 107° |
| 2026-04-30 12:56 | 49.78016 | 13.36415 | 37475 ft | 432 kts | 108° |
| 2026-04-30 12:56 | 49.75457 | 13.44819 | 37476 ft | 432 kts | 108° |
| 2026-04-30 12:57 | 49.72910 | 13.53168 | 37478 ft | 432 kts | 108° |
| 2026-04-30 12:57 | 49.70338 | 13.61559 | 37474 ft | 432 kts | 108° |
| 2026-04-30 12:58 | 49.67770 | 13.69948 | 37471 ft | 432 kts | 108° |
| 2026-04-30 12:58 | 49.65196 | 13.78321 | 37463 ft | 432 kts | 108° |
| 2026-04-30 12:59 | 49.62606 | 13.86696 | 37464 ft | 433 kts | 108° |
| 2026-04-30 12:59 | 49.60011 | 13.95063 | 37464 ft | 433 kts | 108° |
| 2026-04-30 13:00 | 49.57407 | 14.03433 | 37467 ft | 433 kts | 108° |
| 2026-04-30 13:00 | 49.54796 | 14.11791 | 37455 ft | 433 kts | 108° |
| 2026-04-30 13:01 | 49.52180 | 14.20147 | 37453 ft | 434 kts | 108° |
| 2026-04-30 13:01 | 49.49555 | 14.28524 | 37460 ft | 435 kts | 108° |
| 2026-04-30 13:02 | 49.46941 | 14.36841 | 37462 ft | 435 kts | 107° |
| 2026-04-30 13:02 | 49.44605 | 14.45350 | 37504 ft | 430 kts | 103° |
| 2026-04-30 13:03 | 49.42560 | 14.53974 | 37473 ft | 429 kts | 102° |
| 2026-04-30 13:03 | 49.40503 | 14.62606 | 37473 ft | 431 kts | 103° |
| 2026-04-30 13:04 | 49.38351 | 14.71213 | 37470 ft | 433 kts | 104° |
| 2026-04-30 13:04 | 49.36150 | 14.79808 | 37468 ft | 433 kts | 104° |
| 2026-04-30 13:05 | 49.33952 | 14.88406 | 37467 ft | 433 kts | 104° |
| 2026-04-30 13:06 | 49.30652 | 15.01298 | 37451 ft | 434 kts | 104° |
| 2026-04-30 13:06 | 49.28434 | 15.09903 | 37451 ft | 434 kts | 104° |
| 2026-04-30 13:07 | 49.26572 | 15.17048 | 37457 ft | 435 kts | 104° |
| 2026-04-30 13:07 | 49.24330 | 15.25640 | 37489 ft | 435 kts | 104° |
| 2026-04-30 13:08 | 49.22075 | 15.34305 | 37241 ft | 435 kts | 104° |
| 2026-04-30 13:08 | 49.20953 | 15.38592 | 36980 ft | 432 kts | 104° |
| 2026-04-30 13:08 | 49.19853 | 15.42783 | 36724 ft | 429 kts | 104° |
| 2026-04-30 13:08 | 49.18744 | 15.46991 | 36470 ft | 425 kts | 104° |
| 2026-04-30 13:09 | 49.17644 | 15.51162 | 36218 ft | 421 kts | 104° |
| 2026-04-30 13:09 | 49.16540 | 15.55341 | 35966 ft | 417 kts | 104° |
| 2026-04-30 13:09 | 49.15473 | 15.59375 | 35715 ft | 413 kts | 104° |
| 2026-04-30 13:09 | 49.14402 | 15.63422 | 35473 ft | 409 kts | 104° |
| 2026-04-30 13:10 | 49.13345 | 15.67416 | 35146 ft | 405 kts | 104° |
| 2026-04-30 13:10 | 49.12289 | 15.71386 | 34698 ft | 402 kts | 104° |
| 2026-04-30 13:10 | 49.11235 | 15.75332 | 34234 ft | 400 kts | 104° |
| 2026-04-30 13:10 | 49.10189 | 15.79238 | 33768 ft | 396 kts | 104° |
| 2026-04-30 13:11 | 49.09154 | 15.83098 | 33343 ft | 391 kts | 104° |
| 2026-04-30 13:11 | 49.08131 | 15.86914 | 32919 ft | 386 kts | 103° |
| 2026-04-30 13:11 | 49.07123 | 15.90682 | 32500 ft | 382 kts | 103° |
| 2026-04-30 13:11 | 49.06129 | 15.94405 | 32077 ft | 378 kts | 103° |
| 2026-04-30 13:12 | 49.05136 | 15.98094 | 31669 ft | 374 kts | 103° |
| 2026-04-30 13:12 | 49.04154 | 16.01732 | 31272 ft | 370 kts | 103° |
| 2026-04-30 13:12 | 49.03181 | 16.05337 | 30926 ft | 366 kts | 103° |
| 2026-04-30 13:13 | 49.01256 | 16.12473 | 30083 ft | 361 kts | 103° |
| 2026-04-30 13:13 | 49.00303 | 16.15987 | 29717 ft | 357 kts | 104° |
| 2026-04-30 13:13 | 48.98427 | 16.22887 | 29013 ft | 348 kts | 104° |
| 2026-04-30 13:14 | 48.97506 | 16.26272 | 28670 ft | 344 kts | 104° |
| 2026-04-30 13:14 | 48.96596 | 16.29618 | 28330 ft | 339 kts | 104° |
| 2026-04-30 13:14 | 48.94809 | 16.36163 | 27646 ft | 331 kts | 104° |
| 2026-04-30 13:15 | 48.93919 | 16.39447 | 27313 ft | 344 kts | 104° |
| 2026-04-30 13:15 | 48.92067 | 16.46283 | 26578 ft | 352 kts | 105° |
| 2026-04-30 13:15 | 48.91123 | 16.49712 | 26198 ft | 351 kts | 105° |
| 2026-04-30 13:16 | 48.90174 | 16.53133 | 25821 ft | 350 kts | 106° |
| 2026-04-30 13:16 | 48.89227 | 16.56533 | 25428 ft | 349 kts | 106° |
| 2026-04-30 13:16 | 48.88288 | 16.59923 | 25027 ft | 347 kts | 106° |
| 2026-04-30 13:17 | 48.86423 | 16.66667 | 24244 ft | 345 kts | 106° |
| 2026-04-30 13:17 | 48.85495 | 16.70013 | 23826 ft | 343 kts | 107° |
| 2026-04-30 13:17 | 48.83646 | 16.76658 | 23013 ft | 340 kts | 107° |
| 2026-04-30 13:18 | 48.82727 | 16.79952 | 22620 ft | 338 kts | 107° |
| 2026-04-30 13:18 | 48.80902 | 16.86491 | 21832 ft | 335 kts | 107° |
| 2026-04-30 13:18 | 48.79997 | 16.89735 | 21441 ft | 333 kts | 107° |
| 2026-04-30 13:19 | 48.79098 | 16.92963 | 21056 ft | 331 kts | 107° |
| 2026-04-30 13:19 | 48.78201 | 16.96173 | 20661 ft | 330 kts | 107° |
| 2026-04-30 13:19 | 48.77308 | 16.99362 | 20273 ft | 328 kts | 107° |
| 2026-04-30 13:19 | 48.76417 | 17.02527 | 19883 ft | 326 kts | 107° |
| 2026-04-30 13:20 | 48.75542 | 17.05640 | 19509 ft | 324 kts | 107° |
| 2026-04-30 13:20 | 48.74661 | 17.08774 | 19120 ft | 323 kts | 107° |
| 2026-04-30 13:20 | 48.73781 | 17.11891 | 18729 ft | 321 kts | 107° |
| 2026-04-30 13:20 | 48.72902 | 17.14989 | 18308 ft | 319 kts | 107° |
| 2026-04-30 13:21 | 48.72030 | 17.18067 | 17910 ft | 317 kts | 107° |
| 2026-04-30 13:21 | 48.71164 | 17.21121 | 17530 ft | 315 kts | 107° |
| 2026-04-30 13:21 | 48.70303 | 17.24154 | 17151 ft | 313 kts | 107° |
| 2026-04-30 13:22 | 48.68592 | 17.30165 | 16387 ft | 309 kts | 108° |
| 2026-04-30 13:22 | 48.67742 | 17.33147 | 16023 ft | 307 kts | 108° |
| 2026-04-30 13:22 | 48.66060 | 17.39057 | 15288 ft | 304 kts | 108° |
| 2026-04-30 13:23 | 48.65225 | 17.41984 | 14924 ft | 303 kts | 108° |
| 2026-04-30 13:23 | 48.63559 | 17.47792 | 14186 ft | 299 kts | 108° |
| 2026-04-30 13:24 | 48.61834 | 17.53484 | 13428 ft | 299 kts | 117° |
| 2026-04-30 13:24 | 48.58543 | 17.57317 | 12885 ft | 313 kts | 162° |
| 2026-04-30 13:25 | 48.54194 | 17.58199 | 12376 ft | 315 kts | 171° |
| 2026-04-30 13:25 | 48.49862 | 17.58926 | 11859 ft | 312 kts | 171° |
| 2026-04-30 13:26 | 48.43444 | 17.60005 | 10955 ft | 306 kts | 170° |
| 2026-04-30 13:26 | 48.39239 | 17.60724 | 10246 ft | 301 kts | 170° |
| 2026-04-30 13:27 | 48.35125 | 17.61427 | 9139 ft | 294 kts | 171° |
| 2026-04-30 13:28 | 48.29118 | 17.62461 | 7502 ft | 286 kts | 171° |
| 2026-04-30 13:28 | 48.25195 | 17.63137 | 6607 ft | 282 kts | 171° |
| 2026-04-30 13:28 | 48.23255 | 17.63471 | 6115 ft | 280 kts | 172° |
| 2026-04-30 13:29 | 48.19400 | 17.64028 | 5188 ft | 277 kts | 181° |
| 2026-04-30 13:29 | 48.15762 | 17.62297 | 4472 ft | 275 kts | 215° |
| 2026-04-30 13:30 | 48.11620 | 17.56526 | 3558 ft | 269 kts | 226° |
| 2026-04-30 13:31 | 48.09035 | 17.52793 | 3278 ft | 251 kts | 225° |
| 2026-04-30 13:31 | 48.05508 | 17.47637 | 2940 ft | 219 kts | 233° |
| 2026-04-30 13:32 | 48.04473 | 17.43625 | 2784 ft | 204 kts | 271° |
| 2026-04-30 13:32 | 48.05190 | 17.39705 | 2611 ft | 194 kts | 308° |
| 2026-04-30 13:33 | 48.06978 | 17.36784 | 2506 ft | 190 kts | 318° |
| 2026-04-30 13:33 | 48.08730 | 17.34075 | 2428 ft | 165 kts | 319° |
| 2026-04-30 13:34 | 48.09509 | 17.32874 | 2232 ft | 158 kts | 318° |
| 2026-04-30 13:34 | 48.11617 | 17.29619 | 1665 ft | 137 kts | 319° |
| 2026-04-30 13:35 | 48.12280 | 17.28595 | 1470 ft | 137 kts | 321° |
| 2026-04-30 13:35 | 48.13609 | 17.26540 | 1078 ft | 138 kts | 318° |
| 2026-04-30 13:36 | 48.14960 | 17.24438 | 673 ft | 141 kts | 317° |
| 2026-04-30 13:36 | 48.15639 | 17.23390 | 514 ft | 140 kts | 317° |
| 2026-04-30 13:36 | 48.16785 | 17.21615 | 425 ft | 76 kts | 314° |
| 2026-04-30 13:37 | 48.17035 | 17.21228 | 425 ft | 28 kts | 313° |
| 2026-04-30 13:37 | 48.17118 | 17.21002 | 419 ft | 10 kts | 228° |
| 2026-04-30 13:38 | 48.17037 | 17.20864 | 424 ft | 6 kts | 261° |
| 2026-04-30 13:38 | 48.17064 | 17.20808 | 427 ft | 8 kts | 314° |
| 2026-04-30 13:38 | 48.17163 | 17.20617 | 428 ft | 15 kts | 279° |
| 2026-04-30 13:39 | 48.17016 | 17.20356 | 419 ft | 19 kts | 224° |
| 2026-04-30 13:39 | 48.16941 | 17.20225 | 430 ft | 3 kts | 285° |
| 2026-04-30 13:40 | 48.16962 | 17.20192 | 425 ft | 6 kts | 314° |
| 2026-04-30 13:40 | 48.16973 | 17.20175 | 427 ft | 0 kts | 314° |